createdAt,value
2023-01-29T00:27:29.789Z,5
2023-01-29T00:58:36.348Z,5
2023-01-29T01:29:40.495Z,5
2023-01-29T02:00:46.585Z,5
2023-01-29T02:31:55.831Z,5
2023-01-29T03:03:03.499Z,4
2023-01-29T03:34:08.753Z,4
2023-01-29T04:05:15.594Z,4
2023-01-29T04:36:17.887Z,4
2023-01-29T05:07:21.991Z,4
2023-01-29T05:38:30.282Z,4
2023-01-29T06:09:36.060Z,6
2023-01-29T06:40:41.142Z,6
2023-01-29T07:11:42.582Z,6
2023-01-29T07:42:46.508Z,6
2023-01-29T08:13:51.284Z,7
2023-01-29T08:44:59.471Z,7
2023-01-29T09:16:08.547Z,6
2023-01-29T09:47:17.203Z,6
2023-01-29T10:18:22.534Z,6
2023-01-29T10:49:28.597Z,7
2023-01-29T11:20:35.790Z,7
2023-01-29T11:51:42.266Z,6
2023-01-29T12:22:49.804Z,7
2023-01-29T12:55:05.676Z,7
2023-01-29T13:26:11.567Z,6
2023-01-29T13:57:16.544Z,6
2023-01-29T14:28:18.869Z,6
2023-01-29T14:59:24.090Z,6
2023-01-29T15:31:35.712Z,6
2023-01-29T16:02:37.936Z,8
2023-01-29T16:33:39.789Z,8
2023-01-29T17:04:42.084Z,8
2023-01-29T17:36:51.630Z,10
2023-01-29T18:09:00.288Z,13
2023-01-29T18:42:27.399Z,11
2023-01-29T19:13:26.396Z,11
2023-01-29T19:44:32.373Z,11
2023-01-29T20:15:35.470Z,11
2023-01-29T20:46:39.528Z,11
2023-01-29T21:17:45.269Z,11
2023-01-29T21:48:53.817Z,11
2023-01-29T22:20:02.540Z,10
2023-01-29T22:51:11.923Z,11
2023-01-29T23:22:18.684Z,11
2023-01-29T23:53:22.188Z,10
